createdAt,value
2022-11-27T00:01:10.730Z,9.47
2022-11-27T00:03:40.297Z,9.80
2022-11-27T00:06:11.152Z,10.23
2022-11-27T00:08:38.958Z,9.47
2022-11-27T00:11:08.500Z,10.47
2022-11-27T00:13:37.010Z,10.00
2022-11-27T00:16:05.898Z,9.83
2022-11-27T00:18:33.851Z,10.00
2022-11-27T00:21:05.660Z,9.60
2022-11-27T00:23:34.553Z,9.73
2022-11-27T00:26:02.493Z,9.90
2022-11-27T00:28:30.764Z,10.13
2022-11-27T00:31:00.263Z,9.70
2022-11-27T00:33:28.398Z,10.83
2022-11-27T00:35:56.268Z,11.37
2022-11-27T00:38:25.537Z,10.50
2022-11-27T00:40:53.517Z,9.57
2022-11-27T00:43:21.302Z,10.30
2022-11-27T00:45:50.324Z,10.17
2022-11-27T00:48:18.135Z,11.90
2022-11-27T00:50:45.925Z,10.63
2022-11-27T00:53:13.729Z,11.10
2022-11-27T00:55:43.059Z,10.00
2022-11-27T00:58:10.885Z,12.10
2022-11-27T01:00:38.903Z,11.97
2022-11-27T01:03:06.768Z,12.07
2022-11-27T01:05:37.812Z,11.13
2022-11-27T01:08:05.924Z,11.93
2022-11-27T01:10:33.738Z,12.03
2022-11-27T01:13:02.953Z,10.13
2022-11-27T01:15:30.841Z,11.43
2022-11-27T01:17:58.606Z,11.37
2022-11-27T01:20:26.401Z,11.37
2022-11-27T01:22:54.189Z,11.37
2022-11-27T01:25:26.753Z,12.50
2022-11-27T01:27:54.872Z,11.87
2022-11-27T01:30:24.075Z,11.20
2022-11-27T01:32:51.949Z,12.30
2022-11-27T01:35:19.928Z,12.70
2022-11-27T01:37:47.763Z,11.40
2022-11-27T01:40:15.708Z,11.53
2022-11-27T01:42:43.486Z,12.03
2022-11-27T01:45:11.996Z,12.03
2022-11-27T01:47:46.874Z,11.70
2022-11-27T01:50:19.076Z,11.20
2022-11-27T01:52:51.223Z,12.20
2022-11-27T01:55:24.755Z,11.77
2022-11-27T01:57:55.703Z,11.30
2022-11-27T02:00:24.631Z,11.60
2022-11-27T02:02:53.912Z,11.93
2022-11-27T02:05:23.787Z,11.17
2022-11-27T02:07:53.518Z,10.30
2022-11-27T02:10:21.804Z,11.47
2022-11-27T02:12:56.312Z,10.43
2022-11-27T02:15:31.860Z,11.17
2022-11-27T02:18:10.158Z,11.07
2022-11-27T02:20:53.052Z,10.20
2022-11-27T02:23:48.706Z,10.73
2022-11-27T02:26:47.340Z,10.73
2022-11-27T02:29:20.793Z,10.57
2022-11-27T02:31:54.150Z,11.83
2022-11-27T02:34:26.906Z,10.47
2022-11-27T02:37:08.357Z,10.80
2022-11-27T02:39:41.145Z,10.20
2022-11-27T02:42:13.222Z,11.07
2022-11-27T02:44:47.281Z,10.90
2022-11-27T02:47:16.473Z,11.70
2022-11-27T02:49:45.784Z,11.93
2022-11-27T02:52:15.595Z,12.40
2022-11-27T02:54:47.211Z,11.63
2022-11-27T02:57:16.310Z,11.03
2022-11-27T02:59:46.510Z,11.37
2022-11-27T03:02:23.164Z,11.47
2022-11-27T03:04:53.688Z,11.20
2022-11-27T03:07:27.676Z,10.93
2022-11-27T03:10:00.830Z,11.57
2022-11-27T03:12:28.849Z,11.57
2022-11-27T03:14:58.223Z,12.37
2022-11-27T03:17:40.557Z,12.20
2022-11-27T03:20:14.667Z,11.63
2022-11-27T03:22:42.534Z,11.17
2022-11-27T03:25:10.595Z,11.20
2022-11-27T03:27:45.300Z,11.23
2022-11-27T03:30:15.010Z,12.27
2022-11-27T03:32:43.056Z,11.90
2022-11-27T03:35:14.702Z,12.13
2022-11-27T03:37:42.751Z,12.10
2022-11-27T03:40:11.784Z,11.30
2022-11-27T03:42:49.965Z,12.17
2022-11-27T03:45:31.396Z,11.17
2022-11-27T03:48:08.809Z,10.23
2022-11-27T03:50:47.581Z,10.70
2022-11-27T03:53:23.006Z,11.30
2022-11-27T03:55:56.285Z,10.90
2022-11-27T03:58:31.860Z,11.20
2022-11-27T04:01:02.904Z,10.60
2022-11-27T04:03:31.613Z,10.07
2022-11-27T04:05:59.477Z,10.27
2022-11-27T04:08:27.459Z,11.10
2022-11-27T04:10:55.221Z,10.33
2022-11-27T04:13:22.999Z,10.77
2022-11-27T04:15:50.859Z,10.43
2022-11-27T04:18:19.998Z,10.93
2022-11-27T04:20:47.839Z,10.00
2022-11-27T04:23:15.615Z,10.20
2022-11-27T04:25:43.391Z,9.27
2022-11-27T04:28:11.223Z,9.97
2022-11-27T04:30:39.019Z,8.70
2022-11-27T04:33:07.102Z,8.90
2022-11-27T04:35:36.357Z,9.20
2022-11-27T04:38:04.136Z,9.50
2022-11-27T04:40:32.055Z,9.17
2022-11-27T04:42:59.852Z,9.03
2022-11-27T04:45:27.724Z,8.43
2022-11-27T04:47:55.693Z,8.43
2022-11-27T04:50:23.472Z,9.23
2022-11-27T04:52:52.769Z,9.40
2022-11-27T04:55:20.624Z,8.30
2022-11-27T04:57:48.436Z,8.40
2022-11-27T05:00:16.888Z,8.47
2022-11-27T05:02:44.764Z,7.73
2022-11-27T05:05:12.775Z,8.73
2022-11-27T05:07:40.605Z,8.17
2022-11-27T05:10:10.745Z,6.93
2022-11-27T05:12:38.579Z,7.50
2022-11-27T05:15:07.675Z,7.20
2022-11-27T05:17:35.637Z,7.07
2022-11-27T05:20:03.621Z,7.07
2022-11-27T05:22:31.386Z,6.40
2022-11-27T05:24:59.230Z,7.27
2022-11-27T05:27:28.397Z,6.10
2022-11-27T05:29:56.212Z,7.13
2022-11-27T05:32:24.048Z,7.07
2022-11-27T05:34:52.145Z,7.00
2022-11-27T05:37:20.218Z,6.33
2022-11-27T05:39:48.096Z,6.73
2022-11-27T05:42:15.855Z,6.40
2022-11-27T05:44:45.133Z,6.93
2022-11-27T05:47:12.951Z,6.63
2022-11-27T05:49:40.781Z,6.37
2022-11-27T05:52:08.609Z,6.63
2022-11-27T05:54:36.414Z,6.73
2022-11-27T05:57:04.258Z,6.57
2022-11-27T05:59:32.033Z,6.17
2022-11-27T06:02:01.192Z,6.63
2022-11-27T06:04:28.991Z,6.10
2022-11-27T06:06:56.742Z,6.30
2022-11-27T06:09:24.669Z,7.37
2022-11-27T06:11:52.561Z,6.67
2022-11-27T06:14:20.402Z,6.13
2022-11-27T06:16:48.298Z,7.13
2022-11-27T06:19:17.657Z,7.23
2022-11-27T06:21:46.670Z,7.20
2022-11-27T06:24:14.598Z,6.73
2022-11-27T06:26:42.592Z,6.30
2022-11-27T06:29:10.601Z,6.67
2022-11-27T06:31:38.472Z,6.13
2022-11-27T06:34:07.684Z,7.53
2022-11-27T06:36:40.751Z,7.50
2022-11-27T06:39:11.024Z,7.63
2022-11-27T06:41:39.041Z,7.20
2022-11-27T06:44:06.857Z,7.40
2022-11-27T06:46:34.654Z,5.73
2022-11-27T06:49:02.986Z,7.00
2022-11-27T06:51:32.437Z,6.37
2022-11-27T06:54:02.972Z,6.13
2022-11-27T06:56:32.623Z,6.60
2022-11-27T06:59:01.742Z,7.17
2022-11-27T07:01:31.220Z,7.10
2022-11-27T07:03:59.386Z,6.83
2022-11-27T07:06:28.449Z,6.97
2022-11-27T07:08:56.571Z,7.10
2022-11-27T07:11:28.649Z,7.00
2022-11-27T07:13:57.943Z,7.50
2022-11-27T07:16:26.969Z,8.10
2022-11-27T07:18:57.378Z,8.67
2022-11-27T07:21:25.243Z,7.60
2022-11-27T07:23:53.843Z,7.43
2022-11-27T07:26:23.733Z,7.13
2022-11-27T07:28:53.564Z,8.90
2022-11-27T07:31:28.127Z,8.73
2022-11-27T07:33:59.079Z,9.37
2022-11-27T07:36:28.667Z,8.67
2022-11-27T07:38:56.608Z,7.73
2022-11-27T07:41:26.900Z,8.10
2022-11-27T07:43:58.528Z,7.33
2022-11-27T07:46:26.621Z,7.83
2022-11-27T07:48:54.484Z,8.73
2022-11-27T07:51:22.804Z,7.43
2022-11-27T07:53:52.182Z,7.50
2022-11-27T07:56:20.926Z,8.00
2022-11-27T07:58:49.094Z,7.37
2022-11-27T08:01:19.975Z,7.20
2022-11-27T08:03:48.176Z,7.40
2022-11-27T08:06:18.786Z,7.30
2022-11-27T08:08:46.980Z,6.77
2022-11-27T08:11:20.014Z,7.37
2022-11-27T08:13:47.904Z,8.47
2022-11-27T08:16:16.000Z,7.70
2022-11-27T08:18:45.256Z,8.77
2022-11-27T08:21:13.176Z,7.40
2022-11-27T08:23:41.023Z,8.10
2022-11-27T08:26:09.789Z,8.20
2022-11-27T08:28:38.522Z,8.30
2022-11-27T08:31:08.394Z,8.87
2022-11-27T08:33:36.610Z,8.40
2022-11-27T08:36:08.974Z,7.70
2022-11-27T08:38:38.708Z,8.20
2022-11-27T08:41:08.236Z,8.33
2022-11-27T08:43:36.714Z,7.83
2022-11-27T08:46:06.290Z,8.17
2022-11-27T08:48:35.543Z,7.53
2022-11-27T08:51:09.221Z,7.07
2022-11-27T08:53:45.666Z,7.30
2022-11-27T08:56:22.069Z,7.60
2022-11-27T08:58:55.804Z,7.17
2022-11-27T09:01:37.447Z,6.13
2022-11-27T09:04:05.881Z,7.20
2022-11-27T09:06:52.904Z,6.80
2022-11-27T09:10:09.902Z,8.17
2022-11-27T09:13:12.734Z,7.00
2022-11-27T09:15:43.961Z,7.27
2022-11-27T09:18:25.579Z,7.80
2022-11-27T09:21:08.329Z,7.07
2022-11-27T09:24:05.740Z,7.03
2022-11-27T09:26:49.599Z,7.07
2022-11-27T09:29:25.035Z,7.23
2022-11-27T09:32:04.932Z,7.27
2022-11-27T09:35:24.072Z,7.97
2022-11-27T09:38:16.286Z,7.00
2022-11-27T09:41:44.875Z,7.10
2022-11-27T09:49:14.201Z,7.20
2022-11-27T09:52:13.489Z,7.47
2022-11-27T09:59:23.731Z,7.80
2022-11-27T10:02:02.597Z,8.50
2022-11-27T10:05:19.987Z,8.97
2022-11-27T10:12:00.182Z,7.87
2022-11-27T10:15:03.836Z,7.37
2022-11-27T10:18:03.453Z,7.10
2022-11-27T10:24:01.918Z,6.60
2022-11-27T10:30:09.039Z,7.00
2022-11-27T10:32:55.447Z,6.90
2022-11-27T10:42:48.107Z,8.20
2022-11-27T10:45:22.828Z,6.93
2022-11-27T10:51:24.713Z,6.30
2022-11-27T10:54:02.123Z,5.60
2022-11-27T11:00:37.912Z,5.50
2022-11-27T11:07:28.970Z,6.07
2022-11-27T11:10:16.025Z,7.13
2022-11-27T11:12:44.195Z,6.83
2022-11-27T11:16:12.160Z,6.63
2022-11-27T11:18:44.932Z,6.20
2022-11-27T11:21:40.026Z,6.63
2022-11-27T11:24:28.675Z,5.87
2022-11-27T11:26:59.239Z,6.53
2022-11-27T11:31:13.848Z,7.37
2022-11-27T11:34:42.302Z,7.53
2022-11-27T11:37:27.572Z,8.10
2022-11-27T11:40:37.117Z,7.43
2022-11-27T11:43:37.041Z,8.47
2022-11-27T11:46:44.009Z,7.00
2022-11-27T11:49:37.145Z,6.60
2022-11-27T11:56:23.964Z,6.97
2022-11-27T11:59:24.442Z,6.23
2022-11-27T12:02:32.021Z,6.23
2022-11-27T12:05:28.717Z,5.70
2022-11-27T12:08:26.989Z,6.80
2022-11-27T12:11:18.605Z,6.77
2022-11-27T12:14:06.234Z,9.37
2022-11-27T12:17:50.317Z,6.50
2022-11-27T12:20:48.313Z,6.50
2022-11-27T12:24:09.031Z,12.53
2022-11-27T12:27:01.379Z,8.83
2022-11-27T12:29:56.633Z,9.37
2022-11-27T12:37:29.939Z,5.40
2022-11-27T12:40:30.702Z,5.57
2022-11-27T12:43:31.600Z,4.80
2022-11-27T12:46:13.102Z,6.97
2022-11-27T12:48:48.795Z,6.07
2022-11-27T12:51:49.580Z,5.80
2022-11-27T12:54:57.119Z,5.20
2022-11-27T12:57:37.809Z,6.13
2022-11-27T13:00:19.001Z,5.40
2022-11-27T13:03:00.196Z,5.40
2022-11-27T13:05:31.690Z,5.70
2022-11-27T13:08:04.705Z,5.50
2022-11-27T13:10:48.492Z,5.20
2022-11-27T13:13:30.280Z,5.50
2022-11-27T13:16:11.503Z,5.17
2022-11-27T13:18:53.614Z,5.60
2022-11-27T13:21:29.309Z,5.40
2022-11-27T13:24:07.212Z,6.47
2022-11-27T13:26:42.573Z,5.03
2022-11-27T13:29:30.512Z,5.00
2022-11-27T13:32:07.548Z,4.90
2022-11-27T13:34:45.325Z,4.87
2022-11-27T13:37:57.180Z,4.63
2022-11-27T13:40:30.124Z,4.47
2022-11-27T13:43:05.768Z,6.10
2022-11-27T13:45:48.993Z,7.23
2022-11-27T13:48:31.342Z,6.60
2022-11-27T13:51:03.057Z,5.87
2022-11-27T13:53:47.500Z,6.60
2022-11-27T13:56:32.036Z,4.37
2022-11-27T13:59:39.317Z,5.50
2022-11-27T14:02:24.837Z,9.47
2022-11-27T14:05:01.048Z,6.13
2022-11-27T14:07:48.063Z,4.80
2022-11-27T14:10:20.054Z,4.10
2022-11-27T14:12:54.517Z,3.70
2022-11-27T14:15:26.593Z,4.43
2022-11-27T14:18:22.481Z,3.87
2022-11-27T14:21:03.749Z,4.00
2022-11-27T14:39:33.067Z,4.50
2022-11-27T15:03:17.557Z,3.07
2022-11-27T15:06:32.971Z,3.97
2022-11-27T15:09:32.297Z,4.63
2022-11-27T15:11:56.788Z,3.80
2022-11-27T15:14:28.614Z,3.47
2022-11-27T15:16:57.504Z,4.53
2022-11-27T15:19:32.515Z,3.67
2022-11-27T15:22:02.689Z,4.13
2022-11-27T15:24:41.782Z,3.60
2022-11-27T15:27:22.128Z,4.10
2022-11-27T15:30:18.649Z,3.53
2022-11-27T15:32:55.346Z,4.40
2022-11-27T15:56:03.681Z,3.80
2022-11-27T15:58:31.736Z,4.40
2022-11-27T16:01:23.814Z,4.40
2022-11-27T16:03:51.817Z,4.30
2022-11-27T16:15:25.749Z,4.00
2022-11-27T16:17:57.969Z,4.30
2022-11-27T16:22:04.070Z,3.67
2022-11-27T16:24:42.923Z,4.23
2022-11-27T16:27:13.986Z,3.40
2022-11-27T16:30:51.581Z,6.50
2022-11-27T16:33:40.576Z,4.00
2022-11-27T16:39:40.962Z,3.97
2022-11-27T16:43:00.405Z,4.60
2022-11-27T16:45:30.768Z,3.60
2022-11-27T16:52:04.800Z,3.53
2022-11-27T16:54:34.912Z,3.77
2022-11-27T16:57:22.600Z,3.90
2022-11-27T16:59:53.654Z,3.63
2022-11-27T17:02:21.683Z,3.60
2022-11-27T17:04:49.620Z,3.60
2022-11-27T17:11:48.480Z,3.67
2022-11-27T17:14:54.279Z,3.93
2022-11-27T17:18:07.698Z,3.30
2022-11-27T17:23:56.366Z,3.30
2022-11-27T17:26:24.865Z,3.57
2022-11-27T17:28:56.304Z,3.37
2022-11-27T17:31:26.827Z,3.30
2022-11-27T17:33:56.642Z,3.27
2022-11-27T17:36:24.886Z,3.17
2022-11-27T17:38:53.605Z,3.30
2022-11-27T17:41:21.904Z,3.37
2022-11-27T17:43:49.897Z,3.20
2022-11-27T17:46:21.518Z,2.97
2022-11-27T17:49:16.181Z,3.70
2022-11-27T17:56:42.546Z,4.67
2022-11-27T18:04:33.992Z,3.70
2022-11-27T18:44:23.432Z,3.20
2022-11-27T18:51:10.673Z,3.67
2022-11-27T18:54:43.766Z,2.70
2022-11-27T19:02:20.342Z,2.80
2022-11-27T19:05:31.061Z,3.43
2022-11-27T19:08:04.379Z,3.13
2022-11-27T19:16:21.149Z,3.20
2022-11-27T19:22:56.092Z,3.00
2022-11-27T19:44:21.948Z,2.93
2022-11-27T19:46:49.894Z,3.30
2022-11-27T19:49:19.350Z,3.07
2022-11-27T19:51:51.085Z,3.63
2022-11-27T19:54:20.521Z,3.90
2022-11-27T19:56:48.387Z,3.33
2022-11-27T20:02:01.884Z,4.30
2022-11-27T20:08:12.836Z,3.20
2022-11-27T20:10:40.651Z,3.07
2022-11-27T20:13:10.348Z,5.07
2022-11-27T20:19:31.026Z,5.40
2022-11-27T20:22:01.989Z,4.60
2022-11-27T20:24:29.947Z,5.30
2022-11-27T20:26:57.759Z,5.23
2022-11-27T20:29:25.600Z,5.07
2022-11-27T20:31:55.396Z,6.73
2022-11-27T20:34:23.682Z,5.50
2022-11-27T20:37:24.972Z,4.97
2022-11-27T20:39:59.990Z,4.97
2022-11-27T20:42:28.077Z,4.93
2022-11-27T20:49:02.132Z,4.97
2022-11-27T20:51:33.383Z,4.50
2022-11-27T20:54:04.232Z,4.20
2022-11-27T20:56:32.653Z,3.83
2022-11-27T20:59:00.919Z,3.60
2022-11-27T21:01:31.579Z,3.50
2022-11-27T21:04:01.382Z,3.50
2022-11-27T21:06:32.367Z,4.03
2022-11-27T21:09:01.098Z,4.63
2022-11-27T21:11:30.681Z,4.33
2022-11-27T21:14:00.127Z,4.17
2022-11-27T21:16:29.927Z,4.23
2022-11-27T21:19:00.337Z,3.93
2022-11-27T21:21:30.500Z,4.20
2022-11-27T21:23:58.505Z,3.60
2022-11-27T21:26:27.047Z,4.50
2022-11-27T21:28:54.932Z,4.00
2022-11-27T21:31:24.795Z,4.20
2022-11-27T21:33:54.466Z,4.07
2022-11-27T21:36:24.823Z,3.50
2022-11-27T21:38:54.337Z,4.20
2022-11-27T21:41:22.201Z,3.97
2022-11-27T21:43:50.568Z,3.47
2022-11-27T21:46:22.475Z,3.57
2022-11-27T21:48:52.125Z,3.30
2022-11-27T21:51:21.135Z,3.00
2022-11-27T21:53:51.175Z,3.47
2022-11-27T21:56:22.316Z,3.60
2022-11-27T21:58:50.187Z,3.43
2022-11-27T22:01:20.268Z,3.27
2022-11-27T22:03:50.217Z,3.53
2022-11-27T22:06:19.563Z,3.30
2022-11-27T22:08:49.407Z,3.47
2022-11-27T22:11:21.051Z,3.40
2022-11-27T22:13:49.013Z,3.30
2022-11-27T22:16:20.257Z,3.03
2022-11-27T22:18:48.829Z,3.00
2022-11-27T22:21:17.694Z,3.30
2022-11-27T22:23:45.846Z,3.30
2022-11-27T22:26:15.001Z,3.27
2022-11-27T22:28:44.665Z,3.37
2022-11-27T22:31:14.382Z,3.43
2022-11-27T22:33:43.322Z,3.10
2022-11-27T22:36:15.727Z,4.03
2022-11-27T22:38:43.777Z,3.37
2022-11-27T22:41:12.557Z,3.57
2022-11-27T22:43:40.720Z,3.70
2022-11-27T22:46:11.584Z,3.87
2022-11-27T22:48:39.609Z,3.50
2022-11-27T22:51:07.750Z,3.50
2022-11-27T22:53:35.807Z,3.20
2022-11-27T22:56:07.987Z,2.93
2022-11-27T22:58:40.994Z,3.20
2022-11-27T23:01:15.400Z,3.57
2022-11-27T23:03:43.225Z,3.40
2022-11-27T23:06:12.798Z,3.30
2022-11-27T23:08:40.969Z,3.30
2022-11-27T23:11:09.527Z,3.00
2022-11-27T23:13:37.970Z,3.20
2022-11-27T23:16:07.997Z,3.00
2022-11-27T23:18:38.509Z,3.27
2022-11-27T23:21:06.851Z,3.70
2022-11-27T23:23:34.823Z,3.20
2022-11-27T23:26:06.376Z,3.27
2022-11-27T23:28:36.664Z,3.53
2022-11-27T23:31:28.755Z,2.97
2022-11-27T23:33:55.747Z,3.40
2022-11-27T23:36:23.757Z,3.10
2022-11-27T23:38:51.646Z,3.37
2022-11-27T23:41:21.746Z,3.10
2022-11-27T23:43:50.161Z,3.00
2022-11-27T23:46:21.044Z,3.40
2022-11-27T23:48:49.393Z,3.30
2022-11-27T23:51:20.404Z,3.07
2022-11-27T23:53:50.253Z,3.30
2022-11-27T23:56:20.485Z,2.63
2022-11-27T23:58:48.622Z,2.50
